Winterthur, Switzerland
Current Conditions -  °F | °C
As of 3:50 PM on Saturday 20 Dec 2014 (Local Time) from LSMD Reporting Station
Few Clouds Few Clouds  
Wind Chill: 32°   Ceiling: Unl
Heat Index: 41°   Visibility: 6mi
Dew Point: 32°   Wind: 17mph
Humidity: 70%   Direction: 320°NW
Pressure: 30.33"   Gusts: 29mph
Location:  47.51°N, 8.72°E
Report Text: LSMD 201450Z AUTO 32015G25KT 9999NDV FEW027 05/00 Q1027 RMK BLU
Loading
Personal Weather Stations






























Interactive Weather Map New forecast layout! Learn more

10-Day Weather Forecast

Advertisements
Track Severe Weather on mobile